Time;durP1;ratioP1;P1;durP2;ratioP2;P2;SDS_P1;SDS_P2;PMS_P1;PMS_P2;Temp;Humidity;BMP_temperature;BMP_pressure;BME280_temperature;BME280_humidity;BME280_pressure;Samples;Min_cycle;Max_cycle;Signal;HPM_P1;HPM_P2
2022/08/08 00:00:12;;;;;;;4.25;2.67;;;18.20;99.90;;;;;;5012636;28;20200;-72
2022/08/08 00:02:45;;;;;;;8.30;3.40;;;18.10;99.90;;;;;;5013528;28;20207;-72
2022/08/08 00:05:19;;;;;;;9.52;3.88;;;18.10;99.90;;;;;;5013324;28;20269;-72
2022/08/08 00:07:52;;;;;;;5.75;3.17;;;18.10;99.90;;;;;;5014486;28;20222;-72
2022/08/08 00:10:25;;;;;;;4.55;3.38;;;18.00;99.90;;;;;;5014242;28;20234;-72
2022/08/08 00:12:59;;;;;;;5.90;3.42;;;18.00;99.90;;;;;;5013683;28;20755;-72
2022/08/08 00:15:31;;;;;;;3.95;3.10;;;17.90;99.90;;;;;;5012548;28;20215;-71
2022/08/08 00:18:01;;;;;;;6.28;3.53;;;18.00;99.90;;;;;;5013874;28;20595;-71
2022/08/08 00:20:35;;;;;;;4.30;3.00;;;17.90;99.90;;;;;;5008560;28;20559;-72
2022/08/08 00:23:07;;;;;;;5.15;2.92;;;17.90;99.90;;;;;;5012825;28;20235;-73
2022/08/08 00:25:38;;;;;;;4.72;2.95;;;17.90;99.90;;;;;;5014097;28;20199;-71
2022/08/08 00:28:11;;;;;;;4.00;3.20;;;17.80;99.90;;;;;;5013014;28;20414;-71
2022/08/08 00:30:45;;;;;;;3.35;2.88;;;17.80;99.90;;;;;;5011729;28;20216;-72
2022/08/08 00:33:16;;;;;;;5.80;3.22;;;17.80;99.90;;;;;;5014192;28;20287;-71
2022/08/08 00:35:49;;;;;;;8.27;3.67;;;17.80;99.90;;;;;;5012339;28;20277;-72
2022/08/08 00:38:26;;;;;;;5.90;3.25;;;17.80;99.90;;;;;;5011059;28;20306;-72
2022/08/08 00:41:32;;;;;;;6.20;3.50;;;17.80;99.90;;;;;;5010045;28;20214;-72
2022/08/08 00:44:50;;;;;;;6.30;3.50;;;17.70;99.90;;;;;;4986332;28;20203;-71
2022/08/08 00:47:57;;;;;;;3.38;3.00;;;17.70;99.90;;;;;;4990034;28;20216;-71
2022/08/08 00:51:07;;;;;;;5.17;2.90;;;17.70;99.90;;;;;;4990491;28;20215;-72
2022/08/08 00:53:54;;;;;;;5.18;3.00;;;17.70;99.90;;;;;;5013702;28;20222;-73
2022/08/08 00:57:11;;;;;;;4.43;2.63;;;17.70;99.90;;;;;;5011216;28;20251;-72
2022/08/08 01:00:11;;;;;;;4.07;3.07;;;17.70;99.90;;;;;;5011904;28;20680;-72
2022/08/08 01:03:10;;;;;;;4.87;2.73;;;17.70;99.90;;;;;;5013253;28;20207;-74
2022/08/08 01:06:28;;;;;;;4.40;2.88;;;17.70;99.90;;;;;;5002194;28;20203;-74
2022/08/08 01:09:27;;;;;;;3.85;2.78;;;17.70;99.90;;;;;;5013213;28;20211;-72
2022/08/08 01:12:34;;;;;;;4.93;3.08;;;17.70;99.90;;;;;;5012018;28;20195;-72
2022/08/08 01:15:46;;;;;;;3.57;2.67;;;17.70;99.90;;;;;;4999939;28;20619;-72
2022/08/08 01:18:42;;;;;;;4.70;2.67;;;17.70;99.90;;;;;;5010494;28;20227;-72
2022/08/08 01:21:38;;;;;;;3.20;2.67;;;17.70;99.90;;;;;;5009553;28;20587;-71
2022/08/08 01:24:34;;;;;;;5.85;2.97;;;17.70;99.90;;;;;;5012023;28;20210;-71
2022/08/08 01:27:52;;;;;;;4.05;2.83;;;17.60;99.90;;;;;;5012299;28;20199;-72
2022/08/08 01:30:59;;;;;;;4.40;3.00;;;17.60;99.90;;;;;;5011514;28;20218;-72
2022/08/08 01:34:06;;;;;;;5.87;2.40;;;17.60;99.90;;;;;;5012620;28;20203;-71
2022/08/08 01:37:24;;;;;;;4.80;2.90;;;17.50;99.90;;;;;;5012490;28;20288;-72
2022/08/08 01:40:13;;;;;;;3.30;2.47;;;17.50;99.90;;;;;;5012567;28;20212;-72
2022/08/08 01:42:49;;;;;;;4.00;2.50;;;17.50;99.90;;;;;;5010751;28;20238;-72
2022/08/08 01:45:35;;;;;;;3.83;2.75;;;17.50;99.90;;;;;;5012418;28;20710;-72
2022/08/08 01:48:09;;;;;;;4.33;2.50;;;17.50;99.90;;;;;;5010508;28;20294;-72
2022/08/08 01:51:00;;;;;;;3.47;2.83;;;17.60;99.90;;;;;;5012405;28;20226;-72
2022/08/08 01:53:42;;;;;;;3.22;2.45;;;17.50;99.90;;;;;;5012337;28;20226;-72
2022/08/08 01:56:18;;;;;;;3.50;2.17;;;17.50;99.90;;;;;;5012505;28;20288;-72
2022/08/08 01:58:55;;;;;;;5.35;2.58;;;17.50;99.90;;;;;;5011185;28;20203;-73
2022/08/08 02:01:37;;;;;;;3.70;2.47;;;17.60;99.90;;;;;;5012058;28;20210;-71
2022/08/08 02:04:10;;;;;;;4.70;2.63;;;17.50;99.90;;;;;;5012527;28;20196;-71
2022/08/08 02:06:55;;;;;;;4.65;2.50;;;17.50;99.90;;;;;;5010623;28;20226;-72
2022/08/08 02:09:38;;;;;;;4.32;2.95;;;17.50;99.90;;;;;;5003224;28;20612;-72
2022/08/08 02:12:13;;;;;;;5.80;3.23;;;17.50;99.90;;;;;;5011534;28;20209;-72
2022/08/08 02:14:47;;;;;;;6.57;3.03;;;17.50;99.90;;;;;;5011270;28;20211;-73
2022/08/08 02:17:20;;;;;;;4.68;2.50;;;17.50;99.90;;;;;;5010915;28;20215;-72
2022/08/08 02:19:53;;;;;;;5.90;3.10;;;17.50;99.90;;;;;;5011947;28;20207;-73
2022/08/08 02:22:32;;;;;;;4.20;3.10;;;17.40;99.90;;;;;;5010399;28;20588;-71
2022/08/08 02:25:07;;;;;;;4.68;2.72;;;17.40;99.90;;;;;;5011525;28;20294;-72
2022/08/08 02:27:39;;;;;;;5.78;3.10;;;17.40;99.90;;;;;;4997967;28;20257;-71
2022/08/08 02:30:10;;;;;;;5.55;2.97;;;17.40;99.90;;;;;;5011088;28;20237;-72
2022/08/08 02:33:03;;;;;;;3.90;3.00;;;17.40;99.90;;;;;;5011786;28;20716;-73
2022/08/08 02:35:37;;;;;;;5.20;2.85;;;17.40;99.90;;;;;;4993374;28;20214;-72
2022/08/08 02:38:36;;;;;;;5.33;3.23;;;17.40;99.90;;;;;;5010392;28;20706;-73
2022/08/08 02:41:32;;;;;;;5.55;2.60;;;17.40;99.90;;;;;;5010728;28;20203;-73
2022/08/08 02:44:25;;;;;;;3.80;2.87;;;17.40;99.90;;;;;;5006229;28;20198;-72
2022/08/08 02:47:05;;;;;;;5.77;3.10;;;17.40;99.90;;;;;;5010770;28;20240;-73
2022/08/08 02:50:14;;;;;;;6.73;3.33;;;17.30;99.90;;;;;;5009929;28;20206;-72
2022/08/08 02:52:58;;;;;;;5.80;3.17;;;17.30;99.90;;;;;;5010985;28;20211;-71
2022/08/08 02:56:00;;;;;;;3.80;2.80;;;17.20;99.90;;;;;;5009682;28;20207;-71
2022/08/08 02:59:11;;;;;;;3.00;2.70;;;17.20;99.90;;;;;;5010236;28;20241;-73
2022/08/08 03:02:24;;;;;;;5.53;3.13;;;17.30;99.90;;;;;;5003807;28;20234;-73
2022/08/08 03:05:27;;;;;;;3.17;2.40;;;17.10;99.90;;;;;;5010444;28;20202;-73
2022/08/08 03:08:35;;;;;;;3.47;2.57;;;17.10;99.90;;;;;;5011169;28;20203;-72
2022/08/08 03:11:42;;;;;;;4.77;2.83;;;17.10;99.90;;;;;;5010119;28;20542;-72
2022/08/08 03:14:35;;;;;;;5.18;2.60;;;17.10;99.90;;;;;;4987292;28;20245;-72
2022/08/08 03:17:07;;;;;;;4.90;2.70;;;17.10;99.90;;;;;;5009527;28;20565;-72
2022/08/08 03:19:49;;;;;;;3.30;2.40;;;17.10;99.90;;;;;;5010059;28;20233;-72
2022/08/08 03:22:15;;;;;;;4.28;2.80;;;17.10;99.90;;;;;;5009832;28;20231;-71
2022/08/08 03:24:44;;;;;;;4.87;3.20;;;17.10;99.90;;;;;;5010444;28;20219;-73
2022/08/08 03:27:18;;;;;;;4.53;2.95;;;17.10;99.90;;;;;;5008547;28;20199;-72
2022/08/08 03:29:51;;;;;;;4.63;2.83;;;17.10;99.90;;;;;;5001191;28;20687;-72
2022/08/08 03:35:04;;;;;;;5.28;2.50;;;17.10;99.90;;;;;;4999165;28;20257;-72
2022/08/08 03:37:34;;;;;;;5.90;3.03;;;17.10;99.90;;;;;;5002294;28;20263;-72
2022/08/08 03:40:04;;;;;;;5.37;3.10;;;17.10;99.90;;;;;;5006965;28;20575;-73
2022/08/08 03:42:31;;;;;;;5.07;3.10;;;17.10;99.90;;;;;;5001841;28;20666;-73
2022/08/08 03:44:58;;;;;;;4.87;3.03;;;17.20;99.90;;;;;;5006942;28;20526;-72
2022/08/08 03:47:25;;;;;;;3.97;2.90;;;17.30;99.90;;;;;;5004381;28;20230;-72
2022/08/08 03:49:52;;;;;;;3.70;2.63;;;17.30;99.90;;;;;;5013677;28;20215;-72
2022/08/08 03:52:19;;;;;;;6.13;2.93;;;17.40;99.90;;;;;;5011710;28;20218;-72
2022/08/08 03:54:46;;;;;;;4.50;2.63;;;17.40;99.90;;;;;;4996912;28;20287;-73
2022/08/08 03:57:16;;;;;;;4.53;3.17;;;17.50;99.90;;;;;;5006532;28;20228;-71
2022/08/08 03:59:43;;;;;;;6.20;3.08;;;17.50;99.90;;;;;;5009472;28;20302;-73
2022/08/08 04:02:17;;;;;;;5.65;3.13;;;17.50;99.90;;;;;;5007735;28;20212;-72
2022/08/08 04:04:43;;;;;;;3.70;2.70;;;17.60;99.90;;;;;;5005002;28;20208;-72
2022/08/08 04:07:10;;;;;;;5.87;3.17;;;17.70;99.90;;;;;;5012542;28;20673;-72
2022/08/08 04:09:37;;;;;;;4.27;2.83;;;17.60;99.90;;;;;;5013933;28;20211;-72
2022/08/08 04:12:05;;;;;;;4.40;3.00;;;17.70;99.90;;;;;;5012938;28;20211;-72
2022/08/08 04:14:33;;;;;;;5.10;2.60;;;17.70;99.90;;;;;;5013143;28;20230;-72
2022/08/08 04:17:01;;;;;;;4.90;2.70;;;17.70;99.90;;;;;;5018200;28;20222;-73
2022/08/08 04:19:27;;;;;;;4.97;3.10;;;17.80;99.90;;;;;;5012897;28;20593;-71
2022/08/08 04:21:54;;;;;;;4.47;2.30;;;17.90;99.90;;;;;;5012167;28;20966;-71
2022/08/08 04:24:21;;;;;;;6.20;3.00;;;17.90;99.90;;;;;;5013504;28;20215;-72
2022/08/08 04:26:48;;;;;;;5.43;2.60;;;17.90;99.90;;;;;;5013841;28;20220;-72
2022/08/08 04:29:15;;;;;;;4.57;2.70;;;17.90;99.90;;;;;;5000398;28;20214;-72
2022/08/08 04:31:43;;;;;;;5.53;2.60;;;18.00;99.90;;;;;;5010509;28;20222;-72
2022/08/08 04:34:10;;;;;;;4.50;2.70;;;18.00;99.90;;;;;;5010696;28;20234;-72
2022/08/08 04:36:36;;;;;;;4.63;2.47;;;18.10;99.90;;;;;;5013094;28;20239;-72
2022/08/08 04:39:03;;;;;;;3.00;2.20;;;18.20;99.90;;;;;;5013732;28;20235;-72
2022/08/08 04:41:30;;;;;;;4.53;2.20;;;18.20;99.90;;;;;;5012291;28;20218;-72
2022/08/08 04:43:57;;;;;;;4.47;2.40;;;18.30;99.90;;;;;;5012561;28;20203;-71
2022/08/08 04:46:23;;;;;;;5.78;2.40;;;18.40;99.90;;;;;;5010163;28;20199;-72
2022/08/08 04:48:52;;;;;;;3.40;2.55;;;18.50;99.90;;;;;;5012395;28;20211;-72
2022/08/08 04:51:18;;;;;;;5.65;2.55;;;18.60;99.90;;;;;;5012126;28;20214;-71
2022/08/08 04:53:45;;;;;;;3.92;3.08;;;18.60;99.90;;;;;;5012161;28;20210;-71
2022/08/08 04:56:12;;;;;;;4.97;3.40;;;18.70;99.90;;;;;;5012559;28;20727;-71
2022/08/08 04:58:39;;;;;;;3.88;2.90;;;18.70;99.90;;;;;;5012927;28;20558;-72
2022/08/08 05:01:06;;;;;;;6.03;2.78;;;18.80;99.90;;;;;;5010907;28;20305;-71
2022/08/08 05:03:32;;;;;;;5.63;2.70;;;18.90;99.90;;;;;;5009221;28;20210;-71
2022/08/08 05:06:01;;;;;;;5.25;3.25;;;18.90;99.90;;;;;;5012715;28;20210;-71
2022/08/08 05:08:27;;;;;;;6.88;3.53;;;18.90;99.90;;;;;;5011148;28;20238;-71
2022/08/08 05:10:54;;;;;;;7.50;3.78;;;18.90;99.90;;;;;;5012307;28;20222;-71
2022/08/08 05:13:21;;;;;;;5.20;2.85;;;18.90;99.90;;;;;;5011519;28;20221;-71
2022/08/08 05:15:48;;;;;;;7.72;2.85;;;19.00;99.90;;;;;;5010494;28;20234;-71
2022/08/08 05:18:14;;;;;;;4.03;2.67;;;19.00;99.90;;;;;;5007693;28;20238;-71
2022/08/08 05:20:41;;;;;;;6.10;2.47;;;19.00;99.90;;;;;;5011247;28;20664;-73
2022/08/08 05:23:09;;;;;;;4.07;2.50;;;19.10;99.90;;;;;;5011013;28;20231;-72
2022/08/08 05:25:36;;;;;;;6.95;2.53;;;19.10;99.90;;;;;;5010371;28;20662;-74
2022/08/08 05:28:03;;;;;;;3.08;2.42;;;19.20;99.90;;;;;;5011307;28;20215;-74
2022/08/08 05:30:30;;;;;;;5.93;2.33;;;19.20;99.90;;;;;;5009084;28;20217;-71
2022/08/08 05:32:58;;;;;;;4.22;2.70;;;19.30;99.90;;;;;;5009642;28;20462;-69
2022/08/08 05:35:26;;;;;;;5.88;3.67;;;19.30;99.90;;;;;;5007738;28;20223;-74
2022/08/08 05:37:56;;;;;;;4.05;2.90;;;19.40;99.90;;;;;;5010087;28;20226;-74
2022/08/08 05:40:25;;;;;;;7.65;5.00;;;19.40;99.90;;;;;;5009115;28;20211;-71
2022/08/08 05:42:58;;;;;;;26.90;10.93;;;19.40;99.90;;;;;;5011472;28;20210;-72
2022/08/08 05:45:26;;;;;;;17.67;7.73;;;19.40;99.90;;;;;;5004008;28;20935;-75
2022/08/08 05:47:53;;;;;;;17.70;7.65;;;19.50;99.90;;;;;;5008071;28;20474;-75
2022/08/08 05:50:20;;;;;;;13.05;6.00;;;19.50;99.90;;;;;;5009629;28;20222;-74
2022/08/08 05:52:48;;;;;;;11.50;5.05;;;19.60;99.90;;;;;;5010129;28;20588;-73
2022/08/08 05:55:15;;;;;;;12.02;5.75;;;19.60;99.90;;;;;;5009318;28;20234;-72
2022/08/08 05:57:47;;;;;;;8.18;3.72;;;19.70;99.90;;;;;;5010051;28;20231;-77
2022/08/08 06:00:14;;;;;;;14.75;5.93;;;19.70;99.90;;;;;;5010983;28;20203;-68
2022/08/08 06:05:33;;;;;;;10.13;4.95;;;19.90;99.90;;;;;;5012786;28;20190;-77
2022/08/08 06:08:01;;;;;;;12.20;4.50;;;20.00;99.90;;;;;;5011412;28;20294;-76
2022/08/08 06:10:32;;;;;;;8.32;3.38;;;20.10;99.90;;;;;;5009150;28;20592;-76
2022/08/08 06:13:03;;;;;;;5.30;2.92;;;20.20;99.90;;;;;;5011812;28;20204;-77
2022/08/08 06:15:32;;;;;;;7.10;2.45;;;20.30;99.90;;;;;;5012722;28;20269;-69
2022/08/08 06:18:01;;;;;;;10.15;4.55;;;20.30;99.90;;;;;;5004655;28;20239;-69
2022/08/08 06:20:28;;;;;;;7.38;3.58;;;20.40;99.90;;;;;;5004768;28;20198;-68
2022/08/08 06:22:55;;;;;;;4.10;1.30;;;20.50;99.90;;;;;;5007724;28;20595;-69
2022/08/08 06:25:22;;;;;;;4.43;1.50;;;20.60;99.90;;;;;;5010380;28;20229;-69
2022/08/08 06:27:53;;;;;;;3.90;1.67;;;20.60;99.90;;;;;;5010474;28;20223;-70
2022/08/08 06:30:22;;;;;;;3.38;1.17;;;20.70;99.90;;;;;;5006552;28;20684;-68
2022/08/08 06:32:51;;;;;;;3.08;1.45;;;20.70;99.90;;;;;;5010079;28;20210;-66
2022/08/08 06:35:19;;;;;;;2.22;1.35;;;20.80;99.90;;;;;;5007376;28;20225;-67
2022/08/08 06:37:51;;;;;;;1.80;1.45;;;20.80;99.90;;;;;;5008017;28;20574;-66
2022/08/08 06:40:19;;;;;;;3.45;1.40;;;20.90;99.70;;;;;;5010114;28;20227;-68
2022/08/08 06:42:53;;;;;;;5.07;1.70;;;21.00;99.10;;;;;;5009607;28;20213;-67
2022/08/08 06:45:22;;;;;;;3.05;1.40;;;21.10;98.80;;;;;;5006529;28;20206;-67
2022/08/08 06:47:50;;;;;;;4.70;1.52;;;21.20;98.50;;;;;;5010027;28;20590;-69
2022/08/08 06:50:17;;;;;;;3.38;1.73;;;21.30;98.20;;;;;;5009506;28;20222;-70
2022/08/08 06:52:44;;;;;;;1.70;1.02;;;21.40;98.00;;;;;;5011026;28;20211;-66
2022/08/08 06:55:11;;;;;;;3.05;1.10;;;21.40;97.30;;;;;;5008777;28;20235;-70
2022/08/08 06:57:38;;;;;;;3.88;1.20;;;21.50;97.30;;;;;;5010003;28;20235;-67
2022/08/08 07:00:06;;;;;;;3.17;1.30;;;21.60;97.40;;;;;;5007258;28;20230;-65
2022/08/08 07:02:36;;;;;;;1.33;1.23;;;21.70;97.60;;;;;;5001134;28;20397;-68
2022/08/08 07:05:05;;;;;;;3.00;1.90;;;21.80;97.60;;;;;;5009278;28;20211;-69
2022/08/08 07:07:46;;;;;;;1.50;1.23;;;21.90;97.60;;;;;;5005287;28;20635;-69
2022/08/08 07:10:13;;;;;;;2.20;1.90;;;22.10;97.00;;;;;;5007061;28;20195;-68
2022/08/08 07:12:41;;;;;;;1.88;1.08;;;22.10;96.60;;;;;;5013172;28;20664;-67
2022/08/08 07:15:11;;;;;;;3.20;1.40;;;22.30;96.30;;;;;;5012323;28;20293;-68
2022/08/08 07:17:46;;;;;;;2.45;0.90;;;22.40;96.00;;;;;;5012837;28;20261;-66
2022/08/08 07:20:18;;;;;;;1.77;1.17;;;22.50;95.10;;;;;;5009223;28;20242;-67
2022/08/08 07:22:52;;;;;;;1.27;0.98;;;22.60;94.50;;;;;;5012379;28;20234;-66
2022/08/08 07:25:22;;;;;;;1.08;1.00;;;22.70;94.00;;;;;;5009872;28;20207;-66
2022/08/08 07:27:54;;;;;;;2.15;1.10;;;22.70;93.70;;;;;;5012069;28;20796;-67
2022/08/08 07:30:21;;;;;;;1.35;0.90;;;22.70;93.40;;;;;;5012554;28;20314;-67
2022/08/08 07:32:50;;;;;;;11.65;1.42;;;22.70;93.60;;;;;;5012869;28;20211;-68
2022/08/08 07:35:17;;;;;;;0.88;0.70;;;22.80;93.50;;;;;;5009766;28;20238;-67
2022/08/08 07:37:46;;;;;;;3.50;1.10;;;22.90;93.60;;;;;;5008087;28;20204;-66
2022/08/08 07:40:14;;;;;;;1.75;0.90;;;22.90;93.00;;;;;;5010204;28;20227;-66
2022/08/08 07:42:42;;;;;;;2.72;1.27;;;22.90;92.70;;;;;;5012099;28;20211;-66
2022/08/08 07:45:10;;;;;;;1.30;1.20;;;23.00;92.80;;;;;;5013281;28;20211;-65
2022/08/08 07:47:37;;;;;;;2.60;1.13;;;23.00;92.50;;;;;;5013948;28;20214;-66
2022/08/08 07:50:06;;;;;;;3.00;1.08;;;23.10;92.50;;;;;;5013105;28;20203;-67
2022/08/08 07:52:33;;;;;;;1.35;1.02;;;23.20;92.40;;;;;;5013670;28;20211;-68
2022/08/08 07:55:04;;;;;;;1.83;1.00;;;23.40;92.20;;;;;;5013433;28;20211;-66
2022/08/08 07:57:40;;;;;;;6.30;1.13;;;23.50;91.60;;;;;;5007774;28;20311;-65
2022/08/08 08:00:09;;;;;;;1.23;1.17;;;23.60;91.70;;;;;;5011519;28;20222;-67
2022/08/08 08:02:39;;;;;;;5.00;1.25;;;23.70;91.50;;;;;;5010705;28;20664;-68
2022/08/08 08:05:19;;;;;;;1.88;1.10;;;23.80;91.20;;;;;;5012596;28;20207;-67
2022/08/08 08:07:48;;;;;;;1.58;1.20;;;24.00;90.90;;;;;;5011286;28;20204;-67
2022/08/08 08:10:17;;;;;;;3.45;1.50;;;24.20;90.60;;;;;;5012741;28;20214;-66
2022/08/08 08:12:52;;;;;;;1.95;1.25;;;24.30;90.00;;;;;;5011105;28;20215;-66
2022/08/08 08:15:24;;;;;;;3.65;1.15;;;24.40;89.60;;;;;;5009709;28;20663;-66
2022/08/08 08:17:56;;;;;;;2.97;0.98;;;24.40;89.60;;;;;;5006285;28;20664;-68
2022/08/08 08:20:28;;;;;;;5.07;1.42;;;24.60;89.80;;;;;;5009840;28;20218;-66
2022/08/08 08:22:54;;;;;;;4.50;1.05;;;24.80;88.00;;;;;;5008516;28;20281;-67
2022/08/08 08:25:21;;;;;;;9.20;3.00;;;24.90;87.10;;;;;;5004845;28;20214;-68
2022/08/08 08:27:48;;;;;;;8.52;2.70;;;24.90;86.30;;;;;;5010906;28;20708;-67
2022/08/08 08:30:15;;;;;;;15.88;3.72;;;25.00;86.00;;;;;;5012082;28;20279;-67
2022/08/08 08:32:42;;;;;;;7.72;2.25;;;25.10;85.70;;;;;;5010123;28;20211;-66
2022/08/08 08:35:09;;;;;;;4.82;1.95;;;25.30;85.00;;;;;;5008050;28;20204;-66
2022/08/08 08:37:38;;;;;;;7.82;1.90;;;25.50;83.10;;;;;;5009892;28;20671;-68
2022/08/08 08:40:06;;;;;;;12.27;2.88;;;25.60;81.40;;;;;;5010323;28;20258;-67
2022/08/08 08:42:33;;;;;;;4.03;1.50;;;25.60;81.30;;;;;;5009213;28;20238;-67
2022/08/08 08:45:02;;;;;;;3.58;1.52;;;25.80;80.80;;;;;;5006882;28;20211;-67
2022/08/08 08:47:29;;;;;;;2.92;1.38;;;26.10;79.50;;;;;;5010398;28;20241;-67
2022/08/08 08:49:56;;;;;;;5.68;1.50;;;26.20;78.90;;;;;;5004651;28;20200;-67
2022/08/08 08:52:23;;;;;;;1.98;1.02;;;26.20;77.80;;;;;;5010028;28;20208;-66
2022/08/08 08:54:54;;;;;;;7.97;2.40;;;26.40;77.60;;;;;;5009665;28;20222;-68
2022/08/08 08:57:21;;;;;;;3.05;1.40;;;26.60;77.40;;;;;;5010075;28;20239;-67
2022/08/08 08:59:51;;;;;;;4.45;0.90;;;26.90;76.90;;;;;;5009389;28;20318;-69
2022/08/08 09:02:22;;;;;;;4.53;1.33;;;27.10;74.80;;;;;;5009864;28;20211;-68
2022/08/08 09:04:55;;;;;;;1.90;0.90;;;27.20;74.10;;;;;;5008399;28;20214;-67
2022/08/08 09:07:24;;;;;;;3.72;2.15;;;27.20;72.80;;;;;;5009710;28;20687;-68
2022/08/08 09:09:54;;;;;;;1.98;0.93;;;27.20;72.40;;;;;;5007818;28;20648;-66
2022/08/08 09:12:23;;;;;;;1.63;0.90;;;27.20;72.00;;;;;;5008554;28;20632;-68
2022/08/08 09:14:53;;;;;;;2.97;0.70;;;27.30;71.30;;;;;;5002176;28;20931;-66
2022/08/08 09:17:23;;;;;;;4.93;1.15;;;27.30;70.60;;;;;;5008302;28;20252;-66
2022/08/08 09:19:51;;;;;;;2.03;0.90;;;27.40;70.40;;;;;;5010043;28;20479;-67
2022/08/08 09:22:20;;;;;;;1.35;0.90;;;27.60;69.10;;;;;;5011361;28;20227;-68
2022/08/08 09:24:48;;;;;;;1.58;0.70;;;27.80;67.80;;;;;;5005877;28;20212;-68
2022/08/08 09:27:18;;;;;;;1.42;0.70;;;27.70;66.80;;;;;;5008839;28;20207;-67
2022/08/08 09:29:51;;;;;;;1.63;0.93;;;27.60;66.10;;;;;;5006836;28;20211;-67
2022/08/08 09:32:31;;;;;;;1.40;0.63;;;27.30;65.80;;;;;;5007590;28;20665;-67
2022/08/08 09:35:01;;;;;;;3.15;0.90;;;27.20;65.70;;;;;;5002342;28;20198;-67
2022/08/08 09:37:30;;;;;;;3.22;0.60;;;27.10;65.00;;;;;;5011088;28;20226;-66
2022/08/08 09:40:02;;;;;;;1.00;0.82;;;27.20;65.30;;;;;;5007150;28;20230;-67
2022/08/08 09:42:34;;;;;;;1.52;0.70;;;27.50;64.90;;;;;;5006891;28;20253;-67
2022/08/08 09:45:06;;;;;;;2.03;1.60;;;27.80;64.60;;;;;;5010475;28;20217;-67
2022/08/08 09:47:34;;;;;;;1.15;0.98;;;28.00;61.40;;;;;;5010337;28;20210;-66
2022/08/08 09:50:05;;;;;;;2.33;0.70;;;27.90;60.50;;;;;;5008773;28;20690;-66
2022/08/08 09:52:34;;;;;;;1.65;0.70;;;27.90;60.80;;;;;;5009528;28;20207;-67
2022/08/08 09:55:01;;;;;;;3.28;0.88;;;28.10;61.00;;;;;;5008699;28;20207;-67
2022/08/08 09:57:34;;;;;;;0.88;0.60;;;28.40;61.20;;;;;;5008522;28;20262;-66
2022/08/08 10:00:02;;;;;;;3.20;0.60;;;28.70;59.80;;;;;;5007281;28;20910;-66
2022/08/08 10:02:35;;;;;;;4.03;1.05;;;29.00;59.80;;;;;;5006996;28;20616;-66
2022/08/08 10:05:11;;;;;;;1.65;0.60;;;29.20;57.00;;;;;;5007020;28;20690;-67
2022/08/08 10:07:44;;;;;;;1.42;0.60;;;29.10;56.00;;;;;;5010697;28;20211;-68
2022/08/08 10:10:11;;;;;;;0.60;0.60;;;29.00;56.40;;;;;;5006902;28;20574;-66
2022/08/08 10:12:40;;;;;;;1.90;0.70;;;29.10;57.10;;;;;;5008832;28;20764;-68
2022/08/08 10:15:09;;;;;;;0.85;0.52;;;29.30;56.30;;;;;;5010794;28;20207;-66
2022/08/08 10:17:45;;;;;;;1.38;0.70;;;29.50;55.40;;;;;;5007184;28;20204;-67
2022/08/08 10:20:12;;;;;;;1.55;1.00;;;29.70;55.00;;;;;;5005491;28;20292;-67
2022/08/08 10:22:46;;;;;;;3.35;0.77;;;30.00;54.90;;;;;;5008437;28;20327;-66
2022/08/08 10:25:19;;;;;;;2.95;0.90;;;30.20;54.60;;;;;;5008386;28;20214;-65
2022/08/08 10:27:50;;;;;;;5.53;1.02;;;30.20;54.80;;;;;;5002822;28;20314;-66
2022/08/08 10:30:18;;;;;;;2.10;0.60;;;30.20;54.40;;;;;;5010767;28;20640;-67
2022/08/08 10:32:51;;;;;;;1.63;0.75;;;30.10;54.60;;;;;;5009054;28;20199;-66
2022/08/08 10:35:19;;;;;;;1.05;0.70;;;29.80;54.40;;;;;;5008061;28;20581;-65
2022/08/08 10:37:52;;;;;;;2.90;0.75;;;29.50;54.50;;;;;;5005561;28;20230;-64
2022/08/08 10:40:19;;;;;;;1.55;0.77;;;29.30;55.10;;;;;;5010238;28;20219;-66
2022/08/08 10:42:49;;;;;;;2.72;0.80;;;29.50;55.10;;;;;;5007788;28;20207;-67
2022/08/08 10:45:16;;;;;;;2.47;1.48;;;29.50;54.50;;;;;;5009862;28;20203;-67
2022/08/08 10:47:44;;;;;;;4.03;1.17;;;29.50;54.60;;;;;;5009544;28;20668;-67
2022/08/08 10:50:11;;;;;;;1.70;0.77;;;29.40;55.00;;;;;;5005659;28;20569;-65
2022/08/08 10:52:40;;;;;;;2.03;0.75;;;29.20;55.30;;;;;;5009021;28;20218;-66
2022/08/08 10:55:08;;;;;;;3.55;0.80;;;29.00;55.50;;;;;;5010018;28;20203;-67
2022/08/08 10:57:40;;;;;;;2.90;1.10;;;28.80;55.90;;;;;;5009496;28;20615;-68
2022/08/08 11:00:11;;;;;;;1.35;0.80;;;28.50;56.50;;;;;;5008744;28;20630;-67
2022/08/08 11:02:38;;;;;;;3.10;1.15;;;28.20;56.70;;;;;;5008864;28;20214;-66
2022/08/08 11:05:09;;;;;;;0.70;0.65;;;28.10;57.30;;;;;;5002302;28;20244;-67
2022/08/08 11:07:37;;;;;;;1.52;0.70;;;28.30;56.00;;;;;;5005799;28;20514;-66
2022/08/08 11:10:06;;;;;;;2.30;0.75;;;28.40;54.70;;;;;;5010568;28;20215;-67
2022/08/08 11:12:34;;;;;;;3.28;1.10;;;28.50;54.60;;;;;;5007629;28;20214;-66
2022/08/08 11:15:01;;;;;;;1.23;0.60;;;28.60;54.60;;;;;;5000948;28;20214;-67
2022/08/08 11:17:32;;;;;;;2.90;0.80;;;28.80;53.20;;;;;;5004630;28;20203;-67
2022/08/08 11:20:00;;;;;;;1.55;0.90;;;28.80;53.30;;;;;;5008682;28;20227;-67
2022/08/08 11:22:29;;;;;;;2.13;1.02;;;28.90;54.20;;;;;;5000446;28;20227;-68
2022/08/08 11:25:00;;;;;;;2.40;1.35;;;29.00;54.50;;;;;;5005847;28;20206;-68
2022/08/08 11:27:30;;;;;;;1.73;0.93;;;29.00;54.50;;;;;;5006716;28;20202;-66
2022/08/08 11:29:59;;;;;;;0.95;0.60;;;29.00;54.40;;;;;;5007856;28;20203;-67
2022/08/08 11:32:29;;;;;;;2.83;1.02;;;29.10;54.80;;;;;;5007552;28;20302;-65
2022/08/08 11:35:04;;;;;;;0.93;0.57;;;29.00;54.50;;;;;;5008492;28;20211;-65
2022/08/08 11:37:32;;;;;;;3.92;0.65;;;28.90;54.40;;;;;;5008310;28;20210;-67
2022/08/08 11:40:00;;;;;;;2.13;1.25;;;29.00;54.70;;;;;;5004894;28;20223;-67
2022/08/08 11:42:28;;;;;;;3.08;0.68;;;29.10;54.80;;;;;;5009537;28;20212;-67
2022/08/08 11:44:57;;;;;;;1.95;0.80;;;29.40;54.10;;;;;;5008915;28;20214;-66
2022/08/08 11:47:25;;;;;;;2.63;0.90;;;29.50;53.60;;;;;;5010230;28;20238;-67
2022/08/08 11:49:55;;;;;;;3.40;0.75;;;29.60;52.90;;;;;;5009755;28;20213;-67
2022/08/08 11:52:24;;;;;;;2.47;0.80;;;29.80;52.40;;;;;;5006851;28;20211;-66
2022/08/08 11:54:50;;;;;;;2.55;0.70;;;29.90;52.30;;;;;;5008364;28;20596;-67
2022/08/08 11:57:22;;;;;;;2.42;0.98;;;30.20;52.20;;;;;;5006922;28;20293;-66
2022/08/08 11:59:55;;;;;;;3.38;0.82;;;30.40;51.90;;;;;;5013661;28;20238;-68
2022/08/08 12:02:23;;;;;;;3.20;0.98;;;30.50;51.80;;;;;;5012191;28;20262;-67
2022/08/08 12:04:59;;;;;;;2.03;0.77;;;30.40;52.10;;;;;;5012754;28;20238;-67
2022/08/08 12:07:27;;;;;;;1.75;0.80;;;30.40;52.10;;;;;;5004744;28;20659;-66
2022/08/08 12:09:55;;;;;;;0.68;0.65;;;30.40;51.50;;;;;;5012652;28;20218;-67
2022/08/08 12:12:24;;;;;;;1.65;0.70;;;30.10;51.30;;;;;;5009934;28;20560;-67
2022/08/08 12:15:00;;;;;;;2.13;0.77;;;29.60;51.70;;;;;;5010632;28;20207;-67
2022/08/08 12:17:33;;;;;;;2.10;0.55;;;29.10;52.50;;;;;;5009196;28;20207;-67
2022/08/08 12:19:59;;;;;;;2.83;0.70;;;28.70;52.70;;;;;;5010656;28;20465;-67
2022/08/08 12:22:27;;;;;;;3.90;0.65;;;28.30;53.10;;;;;;5006591;28;20258;-67
2022/08/08 12:24:54;;;;;;;4.10;1.17;;;28.10;53.60;;;;;;5005086;28;20226;-67
2022/08/08 12:27:21;;;;;;;2.50;1.00;;;27.80;53.60;;;;;;5011057;28;20707;-67
2022/08/08 12:29:56;;;;;;;1.33;0.90;;;27.60;53.80;;;;;;5011182;28;20203;-67
2022/08/08 12:32:23;;;;;;;0.70;0.45;;;27.40;54.40;;;;;;5011388;28;20206;-67
2022/08/08 12:35:01;;;;;;;2.17;0.65;;;27.10;54.90;;;;;;5009863;28;20212;-66
2022/08/08 12:37:31;;;;;;;0.68;0.50;;;26.90;55.20;;;;;;5012023;28;20641;-68
2022/08/08 12:40:01;;;;;;;1.45;0.65;;;26.90;55.00;;;;;;4999497;28;20214;-67
2022/08/08 12:42:29;;;;;;;1.05;0.77;;;27.00;55.00;;;;;;5011980;28;20314;-66
2022/08/08 12:45:08;;;;;;;1.85;0.70;;;27.20;55.10;;;;;;5008852;28;20280;-68
2022/08/08 12:47:35;;;;;;;1.48;0.60;;;27.30;55.40;;;;;;5008498;28;20207;-67
2022/08/08 12:50:02;;;;;;;2.28;1.05;;;27.30;55.80;;;;;;5011748;28;20207;-68
2022/08/08 12:52:33;;;;;;;1.20;1.00;;;27.40;56.40;;;;;;5012119;28;20949;-67
2022/08/08 12:55:05;;;;;;;1.75;0.70;;;27.50;56.70;;;;;;5008059;28;20211;-67
2022/08/08 12:57:32;;;;;;;3.78;1.25;;;27.40;56.60;;;;;;5001815;28;20334;-67
2022/08/08 12:59:59;;;;;;;0.88;0.73;;;27.30;56.60;;;;;;5009477;28;20297;-67
2022/08/08 13:02:28;;;;;;;2.50;0.82;;;27.20;56.60;;;;;;5010353;28;20210;-65
2022/08/08 13:04:57;;;;;;;1.00;0.80;;;27.10;56.70;;;;;;5011539;28;20206;-66
2022/08/08 13:07:35;;;;;;;3.90;0.77;;;27.00;56.70;;;;;;5012029;28;20207;-66
2022/08/08 13:10:03;;;;;;;1.02;0.80;;;26.90;56.90;;;;;;5009773;28;20257;-67
2022/08/08 13:12:34;;;;;;;1.42;0.90;;;26.80;57.30;;;;;;5009779;28;20237;-66
2022/08/08 13:15:04;;;;;;;4.13;0.90;;;26.60;57.30;;;;;;5010181;28;20238;-66
2022/08/08 13:17:32;;;;;;;1.58;0.70;;;26.50;57.50;;;;;;5011461;28;20207;-66
2022/08/08 13:19:59;;;;;;;1.25;0.80;;;26.40;57.60;;;;;;5010585;28;20203;-67
2022/08/08 13:22:27;;;;;;;2.97;0.90;;;26.30;57.80;;;;;;5006534;28;20231;-66